createdAt,value
2023-01-15T00:02:19.076Z,90.22
2023-01-15T00:04:48.309Z,90.22
2023-01-15T00:07:17.680Z,90.13
2023-01-15T00:09:46.019Z,90.15
2023-01-15T00:12:13.988Z,90.09
2023-01-15T00:14:42.021Z,89.99
2023-01-15T00:17:10.160Z,89.81
2023-01-15T00:19:38.238Z,89.80
2023-01-15T00:22:06.377Z,89.80
2023-01-15T00:24:53.525Z,89.73
2023-01-15T00:27:39.623Z,89.66
2023-01-15T00:30:10.434Z,89.73
2023-01-15T00:32:38.643Z,89.70
2023-01-15T00:35:07.713Z,89.55
2023-01-15T00:37:35.762Z,89.39
2023-01-15T00:40:06.381Z,89.42
2023-01-15T00:42:34.471Z,89.30
2023-01-15T00:45:09.816Z,89.12
2023-01-15T00:47:39.579Z,88.90
2023-01-15T00:50:10.523Z,88.92
2023-01-15T00:52:38.847Z,88.94
2023-01-15T00:55:09.889Z,88.90
2023-01-15T00:57:37.942Z,88.81
2023-01-15T01:00:07.886Z,88.73
2023-01-15T01:02:36.159Z,88.71
2023-01-15T01:05:04.774Z,88.66
2023-01-15T01:07:32.881Z,88.56
2023-01-15T01:10:00.959Z,88.43
2023-01-15T01:12:30.441Z,88.39
2023-01-15T01:14:58.826Z,88.24
2023-01-15T01:17:27.121Z,88.12
2023-01-15T01:19:55.818Z,88.13
2023-01-15T01:22:24.754Z,88.03
2023-01-15T01:24:52.949Z,88.05
2023-01-15T01:27:21.496Z,87.91
2023-01-15T01:29:50.823Z,87.81
2023-01-15T01:32:18.876Z,87.82
2023-01-15T01:34:47.012Z,87.92
2023-01-15T01:37:14.981Z,87.89
2023-01-15T01:39:42.971Z,87.92
2023-01-15T01:42:13.384Z,88.06
2023-01-15T01:45:09.090Z,88.53
2023-01-15T01:47:37.465Z,88.89
2023-01-15T01:50:09.683Z,89.29
2023-01-15T01:52:44.581Z,89.72
2023-01-15T01:55:14.026Z,90.14
2023-01-15T01:57:42.191Z,90.53
2023-01-15T02:00:15.273Z,90.94
2023-01-15T02:02:45.247Z,91.33
2023-01-15T02:05:16.127Z,91.74
2023-01-15T02:07:44.124Z,92.02
2023-01-15T02:10:16.950Z,92.28
2023-01-15T02:12:51.796Z,92.46
2023-01-15T02:15:28.192Z,92.80
2023-01-15T02:17:59.040Z,93.02
2023-01-15T02:20:33.852Z,93.25
2023-01-15T02:23:22.615Z,93.42
2023-01-15T02:26:04.255Z,93.64
2023-01-15T02:28:34.957Z,93.75
2023-01-15T02:31:06.618Z,93.89
2023-01-15T02:33:38.098Z,94.02
2023-01-15T02:36:08.581Z,94.08
2023-01-15T02:38:38.949Z,94.18
2023-01-15T02:41:08.266Z,94.32
2023-01-15T02:43:39.332Z,94.39
2023-01-15T02:46:07.967Z,94.43
2023-01-15T02:48:37.979Z,94.51
2023-01-15T02:51:09.874Z,94.60
2023-01-15T02:53:39.608Z,94.66
2023-01-15T02:56:10.996Z,94.73
2023-01-15T02:58:41.523Z,94.82
2023-01-15T03:01:13.342Z,94.88
2023-01-15T03:03:48.213Z,94.91
2023-01-15T03:06:19.714Z,95.01
2023-01-15T03:08:47.965Z,95.10
2023-01-15T03:11:19.029Z,95.18
2023-01-15T03:13:51.748Z,95.21
2023-01-15T03:16:38.089Z,95.27
2023-01-15T03:19:13.622Z,95.37
2023-01-15T03:21:49.131Z,95.44
2023-01-15T03:24:21.014Z,95.49
2023-01-15T03:26:50.663Z,95.59
2023-01-15T03:29:20.468Z,95.67
2023-01-15T03:31:50.097Z,95.72
2023-01-15T03:34:18.328Z,95.80
2023-01-15T03:36:46.567Z,95.86
2023-01-15T03:39:15.394Z,95.93
2023-01-15T03:41:50.020Z,95.98
2023-01-15T03:44:26.734Z,96.01
2023-01-15T03:47:07.305Z,96.03
2023-01-15T03:49:42.496Z,96.04
2023-01-15T03:52:15.361Z,96.13
2023-01-15T03:54:47.900Z,96.18
2023-01-15T03:57:20.983Z,95.69
2023-01-15T03:59:52.775Z,95.11
2023-01-15T04:02:22.884Z,94.97
2023-01-15T04:04:53.360Z,94.66
2023-01-15T04:07:22.518Z,94.57
2023-01-15T04:09:50.634Z,94.52
2023-01-15T04:12:18.618Z,94.49
2023-01-15T04:14:47.137Z,94.40
2023-01-15T04:17:16.581Z,94.25
2023-01-15T04:19:44.763Z,94.17
2023-01-15T04:22:14.559Z,93.63
2023-01-15T04:24:42.941Z,93.17
2023-01-15T04:27:10.918Z,92.71
2023-01-15T04:29:38.923Z,92.29
2023-01-15T04:32:07.071Z,92.34
2023-01-15T04:34:36.557Z,92.37
2023-01-15T04:37:04.856Z,92.47
2023-01-15T04:39:33.348Z,92.63
2023-01-15T04:42:15.393Z,92.70
2023-01-15T04:44:43.391Z,92.79
2023-01-15T04:47:11.594Z,92.87
2023-01-15T04:49:41.170Z,93.04
2023-01-15T04:52:09.391Z,93.07
2023-01-15T04:54:39.380Z,93.12
2023-01-15T04:57:07.469Z,93.20
2023-01-15T04:59:35.729Z,93.26
2023-01-15T05:02:06.596Z,93.12
2023-01-15T05:04:36.059Z,93.18
2023-01-15T05:07:06.495Z,93.18
2023-01-15T05:09:34.987Z,93.18
2023-01-15T05:12:03.199Z,93.26
2023-01-15T05:14:31.272Z,93.23
2023-01-15T05:16:59.839Z,93.18
2023-01-15T05:19:27.865Z,93.17
2023-01-15T05:21:55.864Z,93.22
2023-01-15T05:24:25.249Z,93.23
2023-01-15T05:26:53.776Z,93.30
2023-01-15T05:29:22.955Z,93.30
2023-01-15T05:31:50.987Z,93.29
2023-01-15T05:34:19.275Z,93.31
2023-01-15T05:36:47.580Z,93.41
2023-01-15T05:39:15.640Z,93.39
2023-01-15T05:41:51.478Z,93.46
2023-01-15T05:44:23.395Z,93.47
2023-01-15T05:46:52.785Z,93.42
2023-01-15T05:49:22.747Z,93.37
2023-01-15T05:51:51.571Z,93.43
2023-01-15T05:54:21.828Z,93.29
2023-01-15T05:56:51.719Z,93.22
2023-01-15T05:59:22.258Z,93.10
2023-01-15T06:01:51.045Z,93.01
2023-01-15T06:04:22.370Z,92.97
2023-01-15T06:06:51.659Z,92.95
2023-01-15T06:09:20.433Z,92.79
2023-01-15T06:11:48.678Z,92.74
2023-01-15T06:14:18.903Z,92.68
2023-01-15T06:16:48.554Z,92.70
2023-01-15T06:19:18.153Z,92.66
2023-01-15T06:21:46.365Z,92.72
2023-01-15T06:24:16.656Z,92.80
2023-01-15T06:26:44.767Z,92.75
2023-01-15T06:29:17.810Z,92.77
2023-01-15T06:31:49.977Z,92.84
2023-01-15T06:34:19.353Z,92.90
2023-01-15T06:36:49.536Z,92.86
2023-01-15T06:39:19.964Z,93.01
2023-01-15T06:42:05.962Z,93.12
2023-01-15T06:44:51.821Z,93.15
2023-01-15T06:47:22.648Z,93.29
2023-01-15T06:49:55.664Z,93.35
2023-01-15T06:52:24.517Z,93.34
2023-01-15T06:54:53.340Z,93.40
2023-01-15T06:57:21.589Z,93.51
2023-01-15T06:59:49.745Z,93.59
2023-01-15T07:02:19.400Z,93.43
2023-01-15T07:04:49.186Z,93.38
2023-01-15T07:07:18.268Z,93.35
2023-01-15T07:09:46.392Z,93.42
2023-01-15T07:12:14.964Z,93.48
2023-01-15T07:14:43.183Z,93.49
2023-01-15T07:17:11.953Z,93.58
2023-01-15T07:19:39.984Z,93.57
2023-01-15T07:22:11.095Z,94.76
2023-01-15T07:24:39.570Z,94.30
2023-01-15T07:27:07.680Z,93.76
2023-01-15T07:29:36.100Z,93.38
2023-01-15T07:32:04.339Z,93.45
2023-01-15T07:34:32.666Z,92.95
2023-01-15T07:37:01.658Z,92.35
2023-01-15T07:39:32.483Z,91.69
2023-01-15T07:42:20.046Z,91.25
2023-01-15T07:45:14.909Z,91.20
2023-01-15T07:48:00.518Z,91.05
2023-01-15T07:50:30.079Z,90.73
2023-01-15T07:52:58.702Z,90.80
2023-01-15T07:55:28.163Z,90.66
2023-01-15T07:57:56.396Z,90.57
2023-01-15T08:00:25.638Z,90.46
2023-01-15T08:02:54.347Z,90.25
2023-01-15T08:05:22.678Z,90.22
2023-01-15T08:07:51.108Z,90.09
2023-01-15T08:10:23.069Z,90.18
2023-01-15T08:13:10.519Z,90.17
2023-01-15T08:15:41.401Z,90.07
2023-01-15T08:18:10.247Z,90.03
2023-01-15T08:20:38.614Z,89.97
2023-01-15T08:23:06.714Z,89.63
2023-01-15T08:25:35.105Z,89.52
2023-01-15T08:28:04.664Z,89.34
2023-01-15T08:30:32.723Z,89.13
2023-01-15T08:33:03.607Z,88.96
2023-01-15T08:35:32.410Z,88.73
2023-01-15T08:38:00.743Z,88.62
2023-01-15T08:40:28.790Z,88.66
2023-01-15T08:42:56.867Z,88.76
2023-01-15T08:45:28.864Z,88.19
2023-01-15T08:47:58.302Z,88.33
2023-01-15T08:50:26.701Z,88.69
2023-01-15T08:52:56.593Z,88.81
2023-01-15T08:55:24.817Z,88.86
2023-01-15T08:57:52.890Z,88.50
2023-01-15T09:00:24.681Z,88.25
2023-01-15T09:02:54.402Z,87.63
2023-01-15T09:05:22.610Z,87.30
2023-01-15T09:07:52.157Z,86.80
2023-01-15T09:10:20.801Z,86.58
2023-01-15T09:12:49.309Z,86.15
2023-01-15T09:15:18.114Z,85.72
2023-01-15T09:17:46.328Z,85.92
2023-01-15T09:20:16.276Z,85.74
2023-01-15T09:22:44.358Z,85.44
2023-01-15T09:25:12.642Z,85.51
2023-01-15T09:27:41.196Z,85.50
2023-01-15T09:30:11.435Z,85.80
2023-01-15T09:32:39.478Z,85.62
2023-01-15T09:35:08.779Z,85.91
2023-01-15T09:37:38.476Z,85.61
2023-01-15T09:40:09.297Z,85.67
2023-01-15T09:42:46.570Z,85.80
2023-01-15T09:45:22.774Z,85.71
2023-01-15T09:48:07.901Z,85.55
2023-01-15T09:50:45.964Z,85.46
2023-01-15T09:53:41.159Z,84.73
2023-01-15T09:56:13.636Z,84.52
2023-01-15T09:58:42.389Z,84.46
2023-01-15T10:01:16.940Z,83.90
2023-01-15T10:03:48.008Z,83.91
2023-01-15T10:06:25.165Z,83.46
2023-01-15T10:09:02.649Z,83.59
2023-01-15T10:11:54.567Z,83.23
2023-01-15T10:14:39.440Z,83.06
2023-01-15T10:17:19.656Z,82.47
2023-01-15T10:19:48.206Z,82.21
2023-01-15T10:22:33.786Z,81.85
2023-01-15T10:25:09.013Z,81.67
2023-01-15T10:27:40.402Z,81.87
2023-01-15T10:30:16.917Z,82.04
2023-01-15T10:33:01.520Z,81.55
2023-01-15T10:35:35.971Z,81.28
2023-01-15T10:38:15.963Z,81.25
2023-01-15T10:41:10.938Z,80.90
2023-01-15T10:43:48.129Z,81.12
2023-01-15T10:46:18.162Z,80.45
2023-01-15T10:48:48.195Z,80.32
2023-01-15T10:51:19.109Z,80.49
2023-01-15T10:53:52.457Z,80.53
2023-01-15T10:56:30.711Z,79.68
2023-01-15T10:59:05.504Z,79.23
2023-01-15T11:01:34.184Z,79.06
2023-01-15T11:04:04.274Z,78.73
2023-01-15T11:06:35.541Z,78.30
2023-01-15T11:09:10.739Z,78.40
2023-01-15T11:12:02.615Z,78.43
2023-01-15T11:14:53.039Z,78.53
2023-01-15T11:17:38.983Z,78.52
2023-01-15T11:20:16.165Z,78.02
2023-01-15T11:22:45.622Z,78.42
2023-01-15T11:25:13.854Z,78.14
2023-01-15T11:27:43.393Z,77.81
2023-01-15T11:30:28.500Z,78.31
2023-01-15T11:32:57.919Z,77.97
2023-01-15T11:35:26.537Z,77.94
2023-01-15T11:38:07.966Z,78.02
2023-01-15T11:40:36.600Z,77.54
2023-01-15T11:43:38.615Z,77.63
2023-01-15T11:46:25.268Z,77.31
2023-01-15T11:49:11.343Z,77.44
2023-01-15T11:51:43.061Z,77.63
2023-01-15T11:54:12.581Z,77.55
2023-01-15T11:56:46.909Z,77.43
2023-01-15T11:59:19.847Z,77.14
2023-01-15T12:01:56.808Z,76.95
2023-01-15T12:04:38.252Z,77.14
2023-01-15T12:07:14.215Z,77.04
2023-01-15T12:10:02.204Z,77.21
2023-01-15T12:12:36.994Z,77.37
2023-01-15T12:15:28.250Z,77.08
2023-01-15T12:18:33.292Z,77.17
2023-01-15T12:21:05.750Z,77.35
2023-01-15T12:23:59.795Z,76.90
2023-01-15T12:26:29.975Z,76.77
2023-01-15T12:29:13.455Z,76.86
2023-01-15T12:31:45.323Z,77.04
2023-01-15T12:34:21.803Z,76.82
2023-01-15T12:36:54.710Z,76.85
2023-01-15T12:39:27.742Z,76.79
2023-01-15T12:42:31.017Z,76.63
2023-01-15T12:45:05.162Z,76.79
2023-01-15T12:47:44.160Z,76.89
2023-01-15T12:50:25.515Z,76.98
2023-01-15T12:52:58.640Z,77.50
2023-01-15T12:55:29.657Z,77.37
2023-01-15T12:58:06.660Z,77.13
2023-01-15T13:00:38.527Z,77.04
2023-01-15T13:03:22.942Z,77.05
2023-01-15T13:05:56.269Z,76.98
2023-01-15T13:08:27.513Z,76.50
2023-01-15T13:10:55.889Z,76.07
2023-01-15T13:13:26.806Z,75.74
2023-01-15T13:16:04.869Z,75.81
2023-01-15T13:18:38.923Z,75.99
2023-01-15T13:21:16.199Z,75.83
2023-01-15T13:24:03.206Z,75.56
2023-01-15T13:26:45.371Z,75.68
2023-01-15T13:29:21.533Z,75.24
2023-01-15T13:31:57.695Z,75.17
2023-01-15T13:34:35.454Z,75.51
2023-01-15T13:37:07.150Z,75.07
2023-01-15T13:39:39.422Z,74.81
2023-01-15T13:42:24.978Z,75.16
2023-01-15T13:44:54.215Z,75.47
2023-01-15T13:47:27.013Z,75.63
2023-01-15T13:50:00.701Z,75.89
2023-01-15T13:52:31.129Z,76.03
2023-01-15T13:55:02.727Z,75.92
2023-01-15T13:57:35.832Z,75.92
2023-01-15T14:00:06.675Z,76.04
2023-01-15T14:02:37.392Z,76.30
2023-01-15T14:05:33.455Z,76.23
2023-01-15T14:08:03.378Z,76.49
2023-01-15T14:10:38.646Z,76.35
2023-01-15T14:13:34.524Z,76.45
2023-01-15T14:16:15.623Z,76.42
2023-01-15T14:19:40.525Z,76.70
2023-01-15T14:22:34.929Z,76.53
2023-01-15T14:25:14.684Z,76.79
2023-01-15T14:27:54.655Z,76.89
2023-01-15T14:30:34.451Z,77.11
2023-01-15T14:33:11.975Z,76.88
2023-01-15T14:35:46.135Z,77.02
2023-01-15T14:38:18.252Z,77.63
2023-01-15T14:40:59.669Z,77.25
2023-01-15T14:43:29.953Z,77.04
2023-01-15T14:46:07.440Z,76.93
2023-01-15T14:48:42.453Z,77.04
2023-01-15T14:51:13.144Z,76.97
2023-01-15T14:53:45.114Z,77.03
2023-01-15T14:56:21.944Z,76.84
2023-01-15T14:58:56.358Z,76.66
2023-01-15T15:01:46.355Z,76.68
2023-01-15T15:04:31.126Z,76.61
2023-01-15T15:07:01.694Z,76.56
2023-01-15T15:09:35.342Z,76.77
2023-01-15T15:12:21.790Z,76.13
2023-01-15T15:15:00.034Z,75.96
2023-01-15T15:17:33.624Z,75.33
2023-01-15T15:20:18.620Z,75.25
2023-01-15T15:22:49.872Z,75.08
2023-01-15T15:25:22.836Z,74.86
2023-01-15T15:27:51.335Z,74.57
2023-01-15T15:30:21.116Z,74.56
2023-01-15T15:32:49.420Z,73.94
2023-01-15T15:35:25.419Z,74.78
2023-01-15T15:37:58.228Z,74.23
2023-01-15T15:40:33.676Z,74.03
2023-01-15T15:43:24.133Z,73.99
2023-01-15T15:46:10.875Z,74.68
2023-01-15T15:48:46.576Z,74.80
2023-01-15T15:51:30.912Z,75.89
2023-01-15T15:54:21.220Z,75.99
2023-01-15T15:56:57.359Z,76.46
2023-01-15T15:59:37.910Z,77.07
2023-01-15T16:02:17.274Z,77.43
2023-01-15T16:04:47.397Z,77.30
2023-01-15T16:07:16.511Z,77.27
2023-01-15T16:09:50.806Z,77.49
2023-01-15T16:12:20.959Z,77.43
2023-01-15T16:15:03.665Z,77.47
2023-01-15T16:17:34.562Z,77.88
2023-01-15T16:20:05.527Z,77.60
2023-01-15T16:22:33.808Z,77.35
2023-01-15T16:25:02.482Z,77.48
2023-01-15T16:27:35.607Z,77.06
2023-01-15T16:30:04.121Z,76.83
2023-01-15T16:32:33.465Z,76.71
2023-01-15T16:35:07.015Z,76.69
2023-01-15T16:37:35.971Z,76.42
2023-01-15T16:40:06.185Z,76.23
2023-01-15T16:42:40.115Z,76.40
2023-01-15T16:45:20.202Z,76.36
2023-01-15T16:48:03.479Z,76.11
2023-01-15T16:50:32.824Z,76.25
2023-01-15T16:53:07.228Z,76.83
2023-01-15T16:55:47.297Z,76.52
2023-01-15T16:58:22.446Z,76.48
2023-01-15T17:00:52.933Z,76.73
2023-01-15T17:03:24.387Z,76.99
2023-01-15T17:05:55.495Z,76.78
2023-01-15T17:08:29.184Z,77.02
2023-01-15T17:10:59.305Z,76.93
2023-01-15T17:13:34.945Z,77.19
2023-01-15T17:16:10.834Z,76.74
2023-01-15T17:18:39.728Z,77.13
2023-01-15T17:21:08.561Z,76.77
2023-01-15T17:23:42.575Z,76.76
2023-01-15T17:26:16.301Z,76.76
2023-01-15T17:28:51.640Z,76.84
2023-01-15T17:31:25.010Z,76.66
2023-01-15T17:33:53.812Z,76.43
2023-01-15T17:36:22.737Z,76.20
2023-01-15T17:38:50.823Z,76.06
2023-01-15T17:41:21.931Z,75.87
2023-01-15T17:43:51.543Z,76.09
2023-01-15T17:46:19.654Z,75.94
2023-01-15T17:48:47.678Z,75.77
2023-01-15T17:51:18.710Z,75.58
2023-01-15T17:53:48.662Z,75.57
2023-01-15T17:56:34.737Z,75.73
2023-01-15T17:59:21.927Z,75.61
2023-01-15T18:02:07.939Z,75.37
2023-01-15T18:04:56.355Z,75.44
2023-01-15T18:07:26.869Z,75.36
2023-01-15T18:09:56.363Z,75.11
2023-01-15T18:12:24.767Z,75.01
2023-01-15T18:14:54.094Z,75.05
2023-01-15T18:17:22.481Z,75.18
2023-01-15T18:19:50.868Z,75.63
2023-01-15T18:22:19.171Z,75.35
2023-01-15T18:24:47.734Z,75.19
2023-01-15T18:27:15.724Z,75.23
2023-01-15T18:29:45.135Z,75.26
2023-01-15T18:32:14.657Z,75.61
2023-01-15T18:34:42.703Z,75.39
2023-01-15T18:37:10.644Z,75.43
2023-01-15T18:39:38.639Z,75.45
2023-01-15T18:42:25.851Z,75.23
2023-01-15T18:45:12.116Z,75.25
2023-01-15T18:47:42.170Z,74.82
2023-01-15T18:50:11.539Z,74.97
2023-01-15T18:52:52.063Z,74.83
2023-01-15T18:55:21.628Z,74.77
2023-01-15T18:57:51.071Z,74.99
2023-01-15T19:00:21.816Z,74.89
2023-01-15T19:02:51.780Z,74.89
2023-01-15T19:05:22.886Z,74.78
2023-01-15T19:07:54.502Z,74.74
2023-01-15T19:10:23.124Z,75.00
2023-01-15T19:12:51.370Z,74.56
2023-01-15T19:15:39.784Z,74.51
2023-01-15T19:18:29.420Z,74.72
2023-01-15T19:20:57.533Z,74.64
2023-01-15T19:23:25.816Z,74.22
2023-01-15T19:25:53.838Z,74.01
2023-01-15T19:28:22.138Z,74.12
2023-01-15T19:31:12.638Z,74.21
2023-01-15T19:33:44.330Z,74.14
2023-01-15T19:36:12.568Z,74.28
2023-01-15T19:38:41.101Z,74.35
2023-01-15T19:41:29.160Z,74.57
2023-01-15T19:44:14.939Z,74.28
2023-01-15T19:47:06.099Z,74.36
2023-01-15T19:49:54.902Z,74.31
2023-01-15T19:52:38.665Z,74.16
2023-01-15T19:55:10.911Z,74.10
2023-01-15T19:57:40.319Z,74.19
2023-01-15T20:00:11.686Z,74.28
2023-01-15T20:02:41.994Z,74.51
2023-01-15T20:05:12.764Z,74.27
2023-01-15T20:07:40.713Z,74.23
2023-01-15T20:10:11.577Z,73.97
2023-01-15T20:12:57.736Z,73.98
2023-01-15T20:15:26.324Z,74.17
2023-01-15T20:17:54.641Z,73.91
2023-01-15T20:20:24.612Z,73.89
2023-01-15T20:22:58.628Z,73.66
2023-01-15T20:25:27.286Z,74.05
2023-01-15T20:27:55.861Z,74.23
2023-01-15T20:30:24.468Z,74.12
2023-01-15T20:32:53.803Z,73.95
2023-01-15T20:35:25.090Z,74.21
2023-01-15T20:37:53.286Z,74.25
2023-01-15T20:40:23.856Z,74.06
2023-01-15T20:43:10.142Z,74.47
2023-01-15T20:45:38.429Z,74.55
2023-01-15T20:48:26.098Z,74.13
2023-01-15T20:51:02.957Z,74.11
2023-01-15T20:53:33.618Z,74.15
2023-01-15T20:56:03.092Z,73.97
2023-01-15T20:58:32.298Z,74.20
2023-01-15T21:01:06.583Z,74.40
2023-01-15T21:03:35.133Z,74.60
2023-01-15T21:06:05.234Z,74.92
2023-01-15T21:08:36.283Z,74.76
2023-01-15T21:11:04.780Z,74.91
2023-01-15T21:13:33.221Z,75.20
2023-01-15T21:16:03.272Z,75.14
2023-01-15T21:18:32.567Z,75.11
2023-01-15T21:21:00.609Z,75.40
2023-01-15T21:23:30.321Z,75.27
2023-01-15T21:26:02.249Z,75.41
2023-01-15T21:28:33.066Z,75.42
2023-01-15T21:31:04.072Z,75.74
2023-01-15T21:33:32.372Z,75.31
2023-01-15T21:36:00.617Z,75.30
2023-01-15T21:38:30.108Z,75.32
2023-01-15T21:40:58.194Z,75.47
2023-01-15T21:43:43.863Z,75.77
2023-01-15T21:46:12.085Z,75.68
2023-01-15T21:48:40.345Z,75.99
2023-01-15T21:51:08.278Z,76.11
2023-01-15T21:53:37.926Z,76.17
2023-01-15T21:56:07.194Z,76.39
2023-01-15T21:58:37.137Z,76.23
2023-01-15T22:01:10.375Z,76.64
2023-01-15T22:03:39.197Z,76.69
2023-01-15T22:06:10.496Z,76.86
2023-01-15T22:08:40.111Z,77.02
2023-01-15T22:11:10.871Z,77.27
2023-01-15T22:13:40.777Z,77.69
2023-01-15T22:16:09.422Z,77.74
2023-01-15T22:18:37.827Z,77.80
2023-01-15T22:21:07.655Z,78.05
2023-01-15T22:23:35.872Z,77.87
2023-01-15T22:26:07.445Z,77.85
2023-01-15T22:28:35.578Z,78.01
2023-01-15T22:31:06.541Z,78.48
2023-01-15T22:33:41.190Z,78.70
2023-01-15T22:36:13.054Z,78.59
2023-01-15T22:38:42.437Z,78.87
2023-01-15T22:41:12.383Z,79.24
2023-01-15T22:43:39.555Z,79.35
2023-01-15T22:46:15.592Z,79.61
2023-01-15T22:48:43.679Z,79.69
2023-01-15T22:51:11.747Z,79.83
2023-01-15T22:53:39.776Z,80.35
2023-01-15T22:56:09.065Z,80.13
2023-01-15T22:58:42.621Z,80.09
2023-01-15T23:01:10.829Z,80.32
2023-01-15T23:03:39.262Z,80.44
2023-01-15T23:06:09.326Z,80.78
2023-01-15T23:08:41.455Z,80.93
2023-01-15T23:11:10.805Z,80.67
2023-01-15T23:13:41.888Z,80.68
2023-01-15T23:16:10.519Z,80.71
2023-01-15T23:18:38.808Z,80.68
2023-01-15T23:21:08.656Z,80.83
2023-01-15T23:23:44.670Z,80.74
2023-01-15T23:26:14.779Z,80.53
2023-01-15T23:28:44.385Z,80.61
2023-01-15T23:31:12.666Z,80.58
2023-01-15T23:33:40.686Z,80.66
2023-01-15T23:36:12.209Z,80.80
2023-01-15T23:38:41.026Z,80.74
2023-01-15T23:41:09.568Z,80.93
2023-01-15T23:43:55.326Z,81.15
2023-01-15T23:46:35.186Z,81.09
2023-01-15T23:49:05.923Z,81.18
2023-01-15T23:51:34.443Z,80.98
2023-01-15T23:54:03.800Z,81.17
2023-01-15T23:56:32.823Z,81.15
2023-01-15T23:59:01.211Z,81.32
